createdAt,value
2022-08-26T00:01:29.089Z,79.32
2022-08-26T00:04:06.881Z,79.39
2022-08-26T00:06:46.115Z,79.43
2022-08-26T00:09:22.974Z,79.33
2022-08-26T00:12:01.132Z,79.41
2022-08-26T00:14:37.074Z,79.63
2022-08-26T00:17:13.722Z,79.64
2022-08-26T00:19:49.894Z,79.77
2022-08-26T00:22:28.808Z,79.81
2022-08-26T00:25:05.107Z,79.81
2022-08-26T00:27:41.918Z,80.16
2022-08-26T00:30:26.502Z,80.09
2022-08-26T00:33:05.080Z,80.32
2022-08-26T00:35:45.273Z,80.51
2022-08-26T00:38:22.293Z,80.53
2022-08-26T00:41:00.501Z,80.57
2022-08-26T00:43:46.224Z,80.66
2022-08-26T00:46:29.892Z,80.65
2022-08-26T00:49:16.917Z,80.73
2022-08-26T00:52:00.047Z,80.88
2022-08-26T00:54:45.388Z,81.04
2022-08-26T00:57:25.507Z,81.21
2022-08-26T01:00:07.394Z,81.42
2022-08-26T01:02:46.933Z,81.54
2022-08-26T01:05:25.541Z,81.61
2022-08-26T01:08:01.548Z,81.63
2022-08-26T01:10:39.836Z,81.72
2022-08-26T01:13:16.710Z,81.83
2022-08-26T01:16:02.272Z,82.00
2022-08-26T01:18:38.406Z,82.16
2022-08-26T01:21:27.783Z,82.41
2022-08-26T01:24:06.690Z,82.52
2022-08-26T01:26:46.331Z,82.50
2022-08-26T01:29:23.904Z,82.51
2022-08-26T01:32:01.507Z,82.56
2022-08-26T01:34:43.255Z,82.61
2022-08-26T01:37:25.028Z,82.63
2022-08-26T01:40:00.333Z,82.78
2022-08-26T01:42:36.920Z,82.91
2022-08-26T01:45:20.610Z,82.93
2022-08-26T01:48:00.621Z,82.92
2022-08-26T01:50:41.327Z,83.01
2022-08-26T01:53:25.143Z,83.03
2022-08-26T01:56:05.712Z,83.10
2022-08-26T01:58:47.618Z,83.09
2022-08-26T02:01:29.023Z,83.25
2022-08-26T02:04:16.964Z,83.31
2022-08-26T02:06:53.359Z,83.33
2022-08-26T02:09:30.877Z,83.44
2022-08-26T02:12:08.792Z,83.63
2022-08-26T02:14:53.428Z,83.80
2022-08-26T02:17:40.629Z,83.90
2022-08-26T02:20:21.780Z,83.91
2022-08-26T02:22:57.678Z,83.90
2022-08-26T02:25:49.467Z,83.87
2022-08-26T02:28:26.792Z,83.88
2022-08-26T02:31:02.898Z,83.95
2022-08-26T02:33:43.191Z,83.99
2022-08-26T02:36:24.039Z,84.02
2022-08-26T02:39:05.353Z,84.00
2022-08-26T02:41:44.879Z,84.08
2022-08-26T02:44:21.293Z,84.17
2022-08-26T02:46:57.319Z,84.19
2022-08-26T02:49:33.683Z,84.28
2022-08-26T02:52:10.058Z,84.31
2022-08-26T02:54:46.630Z,84.39
2022-08-26T02:57:25.524Z,84.38
2022-08-26T03:00:05.617Z,84.61
2022-08-26T03:02:41.612Z,84.65
2022-08-26T03:05:19.899Z,84.69
2022-08-26T03:07:56.459Z,84.79
2022-08-26T03:10:32.760Z,84.83
2022-08-26T03:13:09.145Z,84.96
2022-08-26T03:15:45.943Z,85.01
2022-08-26T03:18:23.856Z,85.19
2022-08-26T03:21:00.286Z,85.16
2022-08-26T03:23:38.581Z,85.17
2022-08-26T03:26:17.355Z,85.15
2022-08-26T03:29:11.358Z,85.10
2022-08-26T03:31:47.555Z,85.16
2022-08-26T03:34:24.470Z,85.20
2022-08-26T03:37:01.886Z,85.25
2022-08-26T03:39:38.238Z,85.35
2022-08-26T03:42:15.096Z,85.50
2022-08-26T03:44:51.618Z,85.47
2022-08-26T03:47:27.835Z,85.44
2022-08-26T03:50:05.594Z,85.46
2022-08-26T03:52:43.896Z,85.43
2022-08-26T03:55:23.620Z,85.35
2022-08-26T03:58:01.063Z,85.30
2022-08-26T04:00:37.275Z,85.34
2022-08-26T04:03:18.500Z,85.44
2022-08-26T04:05:57.371Z,85.56
2022-08-26T04:08:33.568Z,85.49
2022-08-26T04:11:10.584Z,85.47
2022-08-26T04:13:46.727Z,85.41
2022-08-26T04:16:24.127Z,85.40
2022-08-26T04:19:03.032Z,85.37
2022-08-26T04:21:39.503Z,85.32
2022-08-26T04:24:18.242Z,85.29
2022-08-26T04:26:56.542Z,85.32
2022-08-26T04:29:32.862Z,85.39
2022-08-26T04:32:10.663Z,85.39
2022-08-26T04:34:47.434Z,85.33
2022-08-26T04:37:24.628Z,85.23
2022-08-26T04:40:00.865Z,84.82
2022-08-26T04:42:37.994Z,84.14
2022-08-26T04:45:15.858Z,83.14
2022-08-26T04:47:58.263Z,82.10
2022-08-26T04:50:34.754Z,81.25
2022-08-26T04:53:10.669Z,79.97
2022-08-26T04:55:46.751Z,78.99
2022-08-26T04:58:27.055Z,77.90
2022-08-26T05:01:03.201Z,77.05
2022-08-26T05:03:41.014Z,75.95
2022-08-26T05:06:19.772Z,75.60
2022-08-26T05:08:55.977Z,74.16
2022-08-26T05:11:32.198Z,71.13
2022-08-26T05:14:08.497Z,69.69
2022-08-26T05:16:44.659Z,67.67
2022-08-26T05:19:24.884Z,65.62
2022-08-26T05:22:05.663Z,64.76
2022-08-26T05:24:42.081Z,63.27
2022-08-26T05:27:18.510Z,60.85
2022-08-26T05:29:57.281Z,60.04
2022-08-26T05:32:33.294Z,58.91
2022-08-26T05:35:10.949Z,57.14
2022-08-26T05:37:47.008Z,55.69
2022-08-26T05:40:23.416Z,55.07
2022-08-26T05:42:59.913Z,53.65
2022-08-26T05:45:35.883Z,54.04
2022-08-26T05:48:12.172Z,54.62
2022-08-26T05:50:52.466Z,52.33
2022-08-26T05:53:28.446Z,51.31
2022-08-26T05:56:06.356Z,50.30
2022-08-26T05:58:43.764Z,49.53
2022-08-26T06:01:26.804Z,49.17
2022-08-26T06:04:05.183Z,49.44
2022-08-26T06:06:42.861Z,49.20
2022-08-26T06:09:21.626Z,48.97
2022-08-26T06:11:58.895Z,49.19
2022-08-26T06:14:36.170Z,48.87
2022-08-26T06:17:12.916Z,48.09
2022-08-26T06:19:49.392Z,48.26
2022-08-26T06:22:43.473Z,48.33
2022-08-26T06:25:37.210Z,46.46
2022-08-26T06:28:13.733Z,47.20
2022-08-26T06:30:50.331Z,46.81
2022-08-26T06:33:28.959Z,46.39
2022-08-26T06:36:05.825Z,46.64
2022-08-26T06:38:41.959Z,46.40
2022-08-26T06:41:21.242Z,45.83
2022-08-26T06:43:57.853Z,45.99
2022-08-26T06:46:34.099Z,46.34
2022-08-26T06:49:10.774Z,46.20
2022-08-26T06:51:47.183Z,46.18
2022-08-26T06:54:25.110Z,45.55
2022-08-26T06:57:01.427Z,45.73
2022-08-26T06:59:37.724Z,44.70
2022-08-26T07:02:14.986Z,44.43
2022-08-26T07:04:53.891Z,44.60
2022-08-26T07:07:32.956Z,44.33
2022-08-26T07:10:11.282Z,43.58
2022-08-26T07:12:49.197Z,43.66
2022-08-26T07:15:31.023Z,43.69
2022-08-26T07:18:09.312Z,43.83
2022-08-26T07:20:45.887Z,43.37
2022-08-26T07:23:21.849Z,42.95
2022-08-26T07:25:58.588Z,42.48
2022-08-26T07:28:34.668Z,41.61
2022-08-26T07:31:14.468Z,41.71
2022-08-26T07:33:51.296Z,41.68
2022-08-26T07:36:30.431Z,42.26
2022-08-26T07:39:06.991Z,41.98
2022-08-26T07:41:43.168Z,42.05
2022-08-26T07:44:20.085Z,42.59
2022-08-26T07:46:56.382Z,42.36
2022-08-26T07:49:33.020Z,42.90
2022-08-26T07:52:10.445Z,43.14
2022-08-26T07:54:47.103Z,42.91
2022-08-26T07:57:24.296Z,42.91
2022-08-26T08:00:01.404Z,42.95
2022-08-26T08:02:37.777Z,42.40
2022-08-26T08:05:16.529Z,42.57
2022-08-26T08:07:53.722Z,42.25
2022-08-26T08:10:50.259Z,43.26
2022-08-26T08:13:26.482Z,43.29
2022-08-26T08:16:02.614Z,43.94
2022-08-26T08:18:38.842Z,42.96
2022-08-26T08:21:21.753Z,42.94
2022-08-26T08:24:00.907Z,43.32
2022-08-26T08:26:36.802Z,43.43
2022-08-26T08:29:13.031Z,43.75
2022-08-26T08:31:57.962Z,43.29
2022-08-26T08:34:35.000Z,43.46
2022-08-26T08:37:12.561Z,42.88
2022-08-26T08:39:49.020Z,43.71
2022-08-26T08:45:42.035Z,44.16
2022-08-26T08:48:28.011Z,43.91
2022-08-26T08:51:20.318Z,43.24
2022-08-26T08:54:00.123Z,44.17
2022-08-26T08:56:41.201Z,44.33
2022-08-26T08:59:24.177Z,44.36
2022-08-26T09:02:18.264Z,44.31
2022-08-26T09:05:19.853Z,44.66
2022-08-26T09:08:02.941Z,43.86
2022-08-26T09:10:48.423Z,44.68
2022-08-26T09:13:27.186Z,44.90
2022-08-26T09:16:18.938Z,45.11
2022-08-26T09:19:19.355Z,45.34
2022-08-26T09:22:08.779Z,45.29
2022-08-26T09:24:48.402Z,45.98
2022-08-26T09:27:45.235Z,46.74
2022-08-26T09:30:30.140Z,46.97
2022-08-26T09:33:11.737Z,47.93
2022-08-26T09:35:52.353Z,48.52
2022-08-26T09:38:36.290Z,47.02
2022-08-26T09:41:32.226Z,46.36
2022-08-26T09:44:21.921Z,46.81
2022-08-26T09:47:06.128Z,47.97
2022-08-26T09:49:45.788Z,47.25
2022-08-26T09:52:27.924Z,47.22
2022-08-26T09:55:22.055Z,47.59
2022-08-26T09:58:06.814Z,47.06
2022-08-26T10:00:57.395Z,47.62
2022-08-26T10:03:39.593Z,48.52
2022-08-26T10:06:28.746Z,47.74
2022-08-26T10:09:09.746Z,48.54
2022-08-26T10:11:54.255Z,47.86
2022-08-26T10:14:39.641Z,48.03
2022-08-26T10:17:30.771Z,48.08
2022-08-26T10:20:22.974Z,46.91
2022-08-26T10:23:07.191Z,46.86
2022-08-26T10:25:59.050Z,46.99
2022-08-26T10:28:46.846Z,46.30
2022-08-26T10:31:40.574Z,47.27
2022-08-26T10:34:21.140Z,46.19
2022-08-26T10:37:13.623Z,47.62
2022-08-26T10:40:00.990Z,46.60
2022-08-26T10:42:44.140Z,46.25
2022-08-26T10:45:27.623Z,45.70
2022-08-26T10:48:11.164Z,45.46
2022-08-26T10:50:49.760Z,44.89
2022-08-26T10:53:44.637Z,45.45
2022-08-26T10:56:41.427Z,44.27
2022-08-26T10:59:30.150Z,44.54
2022-08-26T11:02:24.210Z,43.99
2022-08-26T11:05:04.778Z,43.27
2022-08-26T11:07:51.439Z,43.52
2022-08-26T11:11:01.352Z,43.68
2022-08-26T11:14:07.545Z,42.98
2022-08-26T11:16:48.562Z,42.90
2022-08-26T11:20:09.019Z,43.81
2022-08-26T11:22:49.855Z,42.48
2022-08-26T11:25:30.230Z,40.88
2022-08-26T11:28:07.833Z,40.15
2022-08-26T11:30:58.085Z,40.32
2022-08-26T11:34:03.020Z,40.44
2022-08-26T11:37:05.080Z,39.83
2022-08-26T11:39:57.626Z,39.05
2022-08-26T11:42:44.460Z,37.86
2022-08-26T11:45:29.489Z,37.23
2022-08-26T11:48:29.791Z,37.98
2022-08-26T11:51:09.207Z,39.08
2022-08-26T11:53:47.471Z,36.91
2022-08-26T11:56:33.355Z,36.81
2022-08-26T11:59:16.658Z,36.45
2022-08-26T12:01:57.464Z,36.30
2022-08-26T12:04:42.090Z,36.46
2022-08-26T12:07:23.958Z,35.90
2022-08-26T12:10:05.820Z,35.55
2022-08-26T12:12:42.606Z,35.76
2022-08-26T12:15:23.030Z,35.43
2022-08-26T12:18:00.489Z,35.59
2022-08-26T12:20:54.068Z,36.17
2022-08-26T12:23:46.868Z,36.09
2022-08-26T12:26:31.573Z,36.07
2022-08-26T12:29:20.339Z,34.76
2022-08-26T12:32:17.704Z,34.26
2022-08-26T12:34:55.221Z,36.00
2022-08-26T12:37:34.983Z,35.24
2022-08-26T12:40:44.099Z,35.29
2022-08-26T12:43:44.908Z,35.06
2022-08-26T12:46:31.018Z,33.84
2022-08-26T12:49:07.100Z,34.20
2022-08-26T12:51:50.747Z,34.03
2022-08-26T12:54:47.754Z,33.01
2022-08-26T12:57:31.872Z,32.69
2022-08-26T13:00:36.118Z,32.91
2022-08-26T13:03:46.092Z,33.39
2022-08-26T13:06:34.683Z,34.09
2022-08-26T13:09:34.356Z,34.91
2022-08-26T13:12:11.671Z,34.73
2022-08-26T13:14:47.704Z,33.17
2022-08-26T13:17:24.319Z,32.41
2022-08-26T13:20:04.133Z,32.60
2022-08-26T13:25:19.662Z,32.42
2022-08-26T13:27:56.468Z,33.37
2022-08-26T13:30:32.558Z,33.53
2022-08-26T13:33:09.648Z,33.38
2022-08-26T13:35:48.739Z,33.11
2022-08-26T13:38:33.260Z,32.69
2022-08-26T13:41:10.481Z,32.84
2022-08-26T13:43:49.660Z,33.11
2022-08-26T13:46:25.754Z,33.48
2022-08-26T13:49:03.013Z,32.56
2022-08-26T13:51:40.244Z,31.74
2022-08-26T13:54:16.246Z,33.21
2022-08-26T13:56:52.313Z,34.21
2022-08-26T13:59:28.568Z,33.81
2022-08-26T14:02:04.963Z,33.86
2022-08-26T14:04:40.994Z,34.54
2022-08-26T14:07:17.115Z,34.35
2022-08-26T14:09:53.095Z,35.20
2022-08-26T14:12:29.557Z,35.25
2022-08-26T14:15:06.082Z,34.66
2022-08-26T14:17:43.624Z,34.39
2022-08-26T14:20:27.296Z,34.82
2022-08-26T14:23:13.658Z,34.71
2022-08-26T14:25:50.238Z,35.13
2022-08-26T14:31:08.859Z,34.96
2022-08-26T14:33:45.875Z,34.78
2022-08-26T14:36:32.339Z,35.49
2022-08-26T14:39:13.252Z,35.99
2022-08-26T14:41:56.141Z,36.65
2022-08-26T14:44:35.594Z,35.46
2022-08-26T14:47:12.223Z,35.46
2022-08-26T14:49:48.208Z,35.85
2022-08-26T14:52:24.347Z,36.26
2022-08-26T14:55:00.345Z,36.76
2022-08-26T14:57:36.268Z,36.65
2022-08-26T15:00:15.639Z,36.42
2022-08-26T15:02:51.936Z,35.68
2022-08-26T15:05:28.534Z,34.99
2022-08-26T15:08:10.665Z,35.89
2022-08-26T15:10:46.921Z,35.86
2022-08-26T15:13:22.923Z,35.64
2022-08-26T15:15:59.015Z,35.81
2022-08-26T15:18:35.562Z,35.90
2022-08-26T15:21:12.880Z,35.34
2022-08-26T15:23:49.693Z,35.98
2022-08-26T15:26:27.607Z,35.90
2022-08-26T15:29:05.203Z,35.75
2022-08-26T15:31:41.546Z,35.40
2022-08-26T15:34:18.813Z,35.35
2022-08-26T15:36:56.831Z,35.80
2022-08-26T15:39:32.902Z,36.23
2022-08-26T15:42:12.248Z,36.15
2022-08-26T15:44:50.316Z,36.14
2022-08-26T15:47:26.339Z,36.69
2022-08-26T15:50:04.654Z,36.84
2022-08-26T15:52:42.203Z,36.95
2022-08-26T15:55:18.862Z,37.22
2022-08-26T15:57:58.436Z,37.06
2022-08-26T16:00:37.445Z,36.72
2022-08-26T16:03:13.553Z,37.26
2022-08-26T16:05:50.663Z,37.05
2022-08-26T16:08:27.213Z,37.46
2022-08-26T16:11:07.124Z,37.69
2022-08-26T16:13:43.230Z,37.73
2022-08-26T16:16:21.513Z,38.09
2022-08-26T16:18:57.966Z,38.09
2022-08-26T16:21:34.104Z,38.14
2022-08-26T16:24:12.015Z,37.84
2022-08-26T16:26:49.076Z,37.59
2022-08-26T16:29:25.682Z,37.95
2022-08-26T16:32:08.684Z,37.89
2022-08-26T16:34:56.379Z,37.88
2022-08-26T16:37:35.444Z,38.11
2022-08-26T16:40:15.947Z,38.25
2022-08-26T16:42:52.063Z,38.44
2022-08-26T16:45:29.226Z,38.73
2022-08-26T16:48:07.208Z,38.77
2022-08-26T16:50:45.074Z,39.03
2022-08-26T16:53:21.459Z,39.38
2022-08-26T16:55:57.534Z,39.52
2022-08-26T16:58:34.099Z,39.60
2022-08-26T17:01:10.394Z,40.02
2022-08-26T17:03:46.554Z,40.54
2022-08-26T17:06:23.084Z,41.05
2022-08-26T17:08:59.134Z,41.14
2022-08-26T17:11:35.863Z,41.52
2022-08-26T17:14:12.104Z,41.71
2022-08-26T17:16:51.261Z,42.63
2022-08-26T17:19:27.278Z,42.77
2022-08-26T17:22:06.061Z,43.53
2022-08-26T17:24:42.094Z,45.33
2022-08-26T17:27:18.175Z,46.07
2022-08-26T17:29:54.794Z,47.05
2022-08-26T17:32:30.752Z,48.27
2022-08-26T17:35:09.392Z,49.03
2022-08-26T17:37:49.153Z,49.24
2022-08-26T17:40:30.747Z,49.81
2022-08-26T17:43:10.356Z,50.98
2022-08-26T17:45:48.528Z,52.38
2022-08-26T17:48:25.425Z,53.45
2022-08-26T17:51:01.544Z,54.00
2022-08-26T17:53:37.658Z,54.84
2022-08-26T17:56:17.497Z,55.57
2022-08-26T17:58:56.939Z,56.48
2022-08-26T18:01:33.495Z,57.39
2022-08-26T18:04:10.238Z,57.92
2022-08-26T18:06:46.587Z,58.58
2022-08-26T18:09:24.189Z,59.11
2022-08-26T18:12:01.241Z,59.64
2022-08-26T18:14:37.858Z,60.19
2022-08-26T18:17:13.945Z,60.82
2022-08-26T18:19:53.776Z,61.53
2022-08-26T18:22:30.095Z,61.63
2022-08-26T18:25:08.750Z,61.67
2022-08-26T18:27:45.264Z,62.17
2022-08-26T18:30:24.114Z,62.58
2022-08-26T18:33:00.329Z,62.80
2022-08-26T18:35:41.243Z,62.37
2022-08-26T18:38:18.793Z,62.62
2022-08-26T18:40:55.490Z,63.00
2022-08-26T18:43:31.750Z,63.51
2022-08-26T18:46:13.328Z,64.20
2022-08-26T18:48:50.863Z,64.31
2022-08-26T18:51:30.764Z,64.19
2022-08-26T18:54:10.390Z,64.12
2022-08-26T18:56:49.393Z,64.68
2022-08-26T18:59:28.454Z,65.02
2022-08-26T19:02:07.574Z,65.42
2022-08-26T19:04:43.819Z,66.03
2022-08-26T19:07:20.208Z,66.33
2022-08-26T19:09:57.096Z,66.64
2022-08-26T19:12:33.376Z,66.81
2022-08-26T19:15:12.495Z,66.90
2022-08-26T19:17:48.746Z,66.88
2022-08-26T19:20:25.098Z,66.96
2022-08-26T19:23:05.757Z,66.94
2022-08-26T19:25:50.896Z,67.00
2022-08-26T19:28:31.814Z,67.59
2022-08-26T19:31:10.570Z,67.91
2022-08-26T19:33:48.332Z,67.51
2022-08-26T19:36:27.136Z,67.25
2022-08-26T19:39:07.792Z,67.07
2022-08-26T19:41:44.516Z,67.33
2022-08-26T19:44:43.909Z,67.67
2022-08-26T19:47:21.451Z,68.24
2022-08-26T19:50:00.704Z,68.37
2022-08-26T19:52:38.743Z,68.62
2022-08-26T19:55:21.238Z,68.73
2022-08-26T19:57:57.851Z,68.85
2022-08-26T20:00:39.793Z,68.93
2022-08-26T20:03:16.474Z,69.31
2022-08-26T20:05:53.553Z,69.27
2022-08-26T20:08:29.904Z,69.50
2022-08-26T20:11:13.021Z,69.52
2022-08-26T20:13:50.969Z,69.62
2022-08-26T20:16:27.487Z,69.96
2022-08-26T20:19:21.421Z,70.10
2022-08-26T20:21:57.750Z,70.11
2022-08-26T20:24:36.418Z,70.37
2022-08-26T20:27:12.556Z,70.47
2022-08-26T20:29:48.562Z,70.68
2022-08-26T20:32:25.440Z,70.50
2022-08-26T20:35:01.713Z,70.58
2022-08-26T20:37:39.035Z,70.52
2022-08-26T20:40:18.045Z,70.53
2022-08-26T20:42:56.771Z,70.71
2022-08-26T20:45:32.904Z,70.90
2022-08-26T20:48:09.968Z,71.26
2022-08-26T20:50:46.451Z,71.67
2022-08-26T20:53:22.660Z,71.93
2022-08-26T20:56:08.267Z,71.98
2022-08-26T20:58:45.915Z,72.08
2022-08-26T21:01:26.795Z,72.04
2022-08-26T21:04:08.900Z,72.07
2022-08-26T21:06:52.077Z,72.25
2022-08-26T21:09:29.964Z,72.31
2022-08-26T21:12:07.867Z,72.00
2022-08-26T21:14:47.721Z,71.92
2022-08-26T21:17:24.130Z,71.77
2022-08-26T21:20:00.554Z,72.03
2022-08-26T21:22:37.089Z,72.26
2022-08-26T21:25:15.264Z,72.53
2022-08-26T21:27:51.219Z,72.81
2022-08-26T21:30:27.615Z,72.76
2022-08-26T21:33:07.777Z,72.60
2022-08-26T21:35:51.797Z,73.15
2022-08-26T21:38:30.901Z,73.41
2022-08-26T21:41:11.967Z,73.59
2022-08-26T21:43:50.149Z,73.47
2022-08-26T21:46:30.154Z,73.32
2022-08-26T21:49:12.953Z,73.28
2022-08-26T21:51:52.282Z,73.57
2022-08-26T21:54:28.440Z,73.71
2022-08-26T21:57:04.487Z,73.79
2022-08-26T21:59:40.544Z,73.83
2022-08-26T22:02:16.821Z,73.96
2022-08-26T22:04:54.183Z,73.75
2022-08-26T22:07:30.410Z,73.83
2022-08-26T22:10:08.147Z,74.12
2022-08-26T22:12:44.320Z,74.37
2022-08-26T22:15:23.315Z,74.40
2022-08-26T22:17:59.701Z,74.54
2022-08-26T22:20:36.490Z,74.68
2022-08-26T22:23:13.749Z,74.56
2022-08-26T22:25:50.209Z,74.74
2022-08-26T22:28:27.480Z,74.80
2022-08-26T22:31:03.861Z,74.76
2022-08-26T22:33:44.802Z,74.73
2022-08-26T22:36:32.598Z,75.02
2022-08-26T22:39:13.459Z,74.99
2022-08-26T22:41:55.320Z,74.91
2022-08-26T22:44:32.567Z,75.06
2022-08-26T22:47:09.891Z,75.20
2022-08-26T22:49:46.916Z,75.35
2022-08-26T22:52:23.069Z,75.33
2022-08-26T22:54:59.203Z,75.39
2022-08-26T22:57:35.698Z,75.62
2022-08-26T23:00:17.990Z,75.85
2022-08-26T23:02:54.128Z,75.91
2022-08-26T23:05:31.130Z,75.89
2022-08-26T23:08:08.730Z,75.97
2022-08-26T23:10:48.142Z,76.05
2022-08-26T23:13:24.649Z,76.23
2022-08-26T23:16:11.094Z,76.28
2022-08-26T23:18:47.491Z,76.40
2022-08-26T23:21:23.872Z,76.36
2022-08-26T23:24:00.046Z,76.65
2022-08-26T23:26:37.749Z,76.67
2022-08-26T23:29:16.619Z,76.84
2022-08-26T23:31:52.995Z,76.94
2022-08-26T23:34:46.379Z,77.29
2022-08-26T23:37:24.779Z,77.41
2022-08-26T23:40:06.168Z,77.60
2022-08-26T23:42:42.625Z,77.65
2022-08-26T23:45:20.062Z,77.70
2022-08-26T23:47:57.335Z,78.03
2022-08-26T23:50:49.060Z,78.02
2022-08-26T23:53:26.942Z,78.07
2022-08-26T23:56:03.035Z,78.11
2022-08-26T23:58:39.235Z,78.25
